createdAt,value
2022-11-15T00:00:24.236Z,0
2022-11-15T00:01:21.472Z,0
2022-11-15T00:02:21.888Z,0
2022-11-15T00:03:21.435Z,0
2022-11-15T00:04:21.467Z,0
2022-11-15T00:05:21.480Z,0
2022-11-15T00:06:21.733Z,0
2022-11-15T00:08:01.221Z,0
2022-11-15T00:09:21.453Z,0
2022-11-15T00:10:24.620Z,0
2022-11-15T00:11:24.275Z,0
2022-11-15T00:12:21.470Z,0
2022-11-15T00:13:21.547Z,0
2022-11-15T00:14:21.490Z,0
2022-11-15T00:15:21.472Z,0
2022-11-15T00:16:21.455Z,0
2022-11-15T00:17:24.211Z,0
2022-11-15T00:18:21.298Z,0
2022-11-15T00:19:21.452Z,0
2022-11-15T00:20:21.393Z,0
2022-11-15T00:21:23.959Z,0
2022-11-15T00:22:24.459Z,0
2022-11-15T00:23:21.456Z,0
2022-11-15T00:24:21.463Z,0
2022-11-15T00:25:22.497Z,0
2022-11-15T00:26:21.489Z,0
2022-11-15T00:27:21.699Z,0
2022-11-15T00:28:24.314Z,0
2022-11-15T00:29:21.477Z,0
2022-11-15T00:30:21.575Z,0
2022-11-15T00:31:21.527Z,0
2022-11-15T00:32:21.485Z,0
2022-11-15T00:33:24.511Z,0
2022-11-15T00:34:21.477Z,0
2022-11-15T00:35:21.547Z,0
2022-11-15T00:36:21.509Z,0
2022-11-15T00:37:21.518Z,0
2022-11-15T00:38:22.507Z,0
2022-11-15T00:39:24.304Z,0
2022-11-15T00:40:21.588Z,0
2022-11-15T00:41:21.498Z,0
2022-11-15T00:42:21.507Z,0
2022-11-15T00:43:21.480Z,0
2022-11-15T00:44:22.536Z,0
2022-11-15T00:45:21.500Z,0
2022-11-15T00:46:21.544Z,0
2022-11-15T00:47:21.507Z,0
2022-11-15T00:48:21.587Z,0
2022-11-15T00:49:21.493Z,0
2022-11-15T00:50:27.643Z,0
2022-11-15T00:51:21.480Z,0
2022-11-15T00:52:21.531Z,0
2022-11-15T00:53:21.565Z,0
2022-11-15T00:54:21.498Z,0
2022-11-15T00:55:24.373Z,0
2022-11-15T00:56:21.502Z,0
2022-11-15T00:57:21.509Z,0
2022-11-15T00:58:21.522Z,0
2022-11-15T00:59:21.547Z,0
2022-11-15T01:00:21.627Z,0
2022-11-15T01:01:25.987Z,0
2022-11-15T01:02:21.575Z,0
2022-11-15T01:03:21.508Z,0
2022-11-15T01:04:21.691Z,0
2022-11-15T01:05:21.533Z,0
2022-11-15T01:06:24.584Z,0
2022-11-15T01:07:21.830Z,0
2022-11-15T01:08:21.567Z,0
2022-11-15T01:09:21.556Z,0
2022-11-15T01:10:21.573Z,0
2022-11-15T01:11:21.511Z,0
2022-11-15T01:12:24.666Z,0
2022-11-15T01:13:21.523Z,0
2022-11-15T01:14:27.989Z,0
2022-11-15T01:15:21.805Z,0
2022-11-15T01:16:21.554Z,0
2022-11-15T01:17:24.752Z,0
2022-11-15T01:18:21.525Z,0
2022-11-15T01:19:21.509Z,0
2022-11-15T01:20:21.562Z,0
2022-11-15T01:21:24.625Z,0
2022-11-15T01:22:21.545Z,0
2022-11-15T01:23:24.357Z,0
2022-11-15T01:24:21.521Z,0
2022-11-15T01:25:21.586Z,0
2022-11-15T01:26:21.364Z,0
2022-11-15T01:27:21.544Z,0
2022-11-15T01:28:24.605Z,0
2022-11-15T01:29:21.545Z,0
2022-11-15T01:30:21.614Z,0
2022-11-15T01:31:21.533Z,0
2022-11-15T01:32:21.734Z,0
2022-11-15T01:33:21.638Z,0
2022-11-15T01:34:24.340Z,0
2022-11-15T01:35:21.564Z,0
2022-11-15T01:36:21.564Z,0
2022-11-15T01:37:21.560Z,0
2022-11-15T01:38:21.551Z,0
2022-11-15T01:39:22.785Z,0
2022-11-15T01:40:21.578Z,0
2022-11-15T01:41:21.565Z,0
2022-11-15T01:42:21.643Z,0
2022-11-15T01:43:21.554Z,0
2022-11-15T01:44:24.427Z,0
2022-11-15T01:45:21.729Z,0
2022-11-15T01:46:21.607Z,0
2022-11-15T01:47:21.562Z,0
2022-11-15T01:48:21.598Z,0
2022-11-15T01:49:21.636Z,0
2022-11-15T01:50:24.361Z,0
2022-11-15T01:51:21.586Z,0
2022-11-15T01:52:21.569Z,0
2022-11-15T01:53:21.597Z,0
2022-11-15T01:54:21.568Z,0
2022-11-15T01:55:22.827Z,0
2022-11-15T01:56:21.574Z,0
2022-11-15T01:57:21.625Z,0
2022-11-15T01:58:21.581Z,0
2022-11-15T01:59:21.673Z,0
2022-11-15T02:00:21.609Z,0
2022-11-15T02:01:22.308Z,0
2022-11-15T02:02:21.596Z,0
2022-11-15T02:03:21.578Z,0
2022-11-15T02:04:21.581Z,0
2022-11-15T02:05:21.674Z,0
2022-11-15T02:06:24.338Z,0
2022-11-15T02:07:22.112Z,0
2022-11-15T02:08:21.600Z,0
2022-11-15T02:09:22.625Z,0
2022-11-15T02:10:21.687Z,0
2022-11-15T02:11:21.630Z,0
2022-11-15T02:12:21.608Z,0
2022-11-15T02:13:21.616Z,0
2022-11-15T02:14:21.605Z,0
2022-11-15T02:15:21.628Z,0
2022-11-15T02:16:21.677Z,0
2022-11-15T02:17:21.730Z,0
2022-11-15T02:18:21.658Z,0
2022-11-15T02:19:21.607Z,0
2022-11-15T02:20:21.661Z,0
2022-11-15T02:21:21.646Z,0
2022-11-15T02:22:24.384Z,0
2022-11-15T02:23:21.635Z,0
2022-11-15T02:24:21.613Z,0
2022-11-15T02:25:21.647Z,0
2022-11-15T02:26:21.627Z,0
2022-11-15T02:27:21.709Z,0
2022-11-15T02:28:21.668Z,0
2022-11-15T02:29:21.645Z,0
2022-11-15T02:30:21.654Z,0
2022-11-15T02:31:21.678Z,0
2022-11-15T02:32:21.654Z,0
2022-11-15T02:33:24.399Z,0
2022-11-15T02:34:21.656Z,0
2022-11-15T02:35:21.650Z,0
2022-11-15T02:36:21.697Z,0
2022-11-15T02:37:21.932Z,0
2022-11-15T02:38:24.624Z,0
2022-11-15T02:39:21.753Z,0
2022-11-15T02:40:21.679Z,0
2022-11-15T02:41:21.653Z,0
2022-11-15T02:42:22.637Z,0
2022-11-15T02:43:21.697Z,0
2022-11-15T02:44:24.485Z,0
2022-11-15T02:45:21.794Z,0
2022-11-15T02:46:21.674Z,0
2022-11-15T02:47:21.692Z,0
2022-11-15T02:48:21.689Z,0
2022-11-15T02:49:24.713Z,0
2022-11-15T02:50:21.688Z,0
2022-11-15T02:51:21.658Z,0
2022-11-15T02:52:21.698Z,0
2022-11-15T02:53:21.726Z,0
2022-11-15T02:54:21.667Z,0
2022-11-15T02:55:22.787Z,0
2022-11-15T02:56:21.659Z,0
2022-11-15T02:57:21.682Z,0
2022-11-15T02:58:21.676Z,0
2022-11-15T02:59:21.700Z,0
2022-11-15T03:00:22.548Z,0
2022-11-15T03:01:21.992Z,0
2022-11-15T03:02:21.673Z,0
2022-11-15T03:03:21.686Z,0
2022-11-15T03:04:21.658Z,0
2022-11-15T03:05:21.718Z,0
2022-11-15T03:06:24.429Z,0
2022-11-15T03:07:22.097Z,0
2022-11-15T03:08:21.655Z,0
2022-11-15T03:09:21.773Z,0
2022-11-15T03:10:21.700Z,0
2022-11-15T03:11:24.730Z,0
2022-11-15T03:12:21.690Z,0
2022-11-15T03:13:21.683Z,0
2022-11-15T03:14:21.743Z,0
2022-11-15T03:15:21.734Z,0
2022-11-15T03:16:21.700Z,0
2022-11-15T03:17:24.820Z,0
2022-11-15T03:18:21.690Z,0
2022-11-15T03:19:21.680Z,0
2022-11-15T03:20:21.738Z,0
2022-11-15T03:21:21.979Z,0
2022-11-15T03:22:24.616Z,0
2022-11-15T03:23:21.708Z,0
2022-11-15T03:24:28.407Z,0
2022-11-15T03:25:21.748Z,0
2022-11-15T03:26:21.792Z,0
2022-11-15T03:27:21.696Z,0
2022-11-15T03:28:24.696Z,0
2022-11-15T03:29:21.715Z,0
2022-11-15T03:30:21.730Z,0
2022-11-15T03:31:21.865Z,0
2022-11-15T03:32:21.700Z,0
2022-11-15T03:33:24.672Z,0
2022-11-15T03:34:22.731Z,0
2022-11-15T03:35:21.748Z,0
2022-11-15T03:36:21.706Z,0
2022-11-15T03:37:21.748Z,0
2022-11-15T03:38:22.198Z,0
2022-11-15T03:39:31.061Z,0
2022-11-15T03:40:21.739Z,0
2022-11-15T03:41:21.756Z,0
2022-11-15T03:42:21.934Z,0
2022-11-15T03:43:21.735Z,0
2022-11-15T03:44:24.709Z,0
2022-11-15T03:45:21.759Z,0
2022-11-15T03:46:21.639Z,0
2022-11-15T03:47:21.763Z,0
2022-11-15T03:48:21.722Z,0
2022-11-15T03:49:21.788Z,0
2022-11-15T03:50:24.769Z,0
2022-11-15T03:51:21.745Z,0
2022-11-15T03:52:21.744Z,0
2022-11-15T03:53:21.791Z,0
2022-11-15T03:54:21.734Z,0
2022-11-15T03:55:23.309Z,0
2022-11-15T03:56:21.736Z,0
2022-11-15T03:57:21.808Z,0
2022-11-15T03:58:21.744Z,0
2022-11-15T03:59:22.796Z,0
2022-11-15T04:00:21.769Z,0
2022-11-15T04:01:25.038Z,0
2022-11-15T04:02:21.855Z,0
2022-11-15T04:03:21.795Z,0
2022-11-15T04:04:21.783Z,0
2022-11-15T04:05:21.828Z,0
2022-11-15T04:06:22.926Z,0
2022-11-15T04:07:23.415Z,0
2022-11-15T04:08:21.785Z,0
2022-11-15T04:09:21.803Z,0
2022-11-15T04:10:21.888Z,0
2022-11-15T04:11:24.669Z,0
2022-11-15T04:12:21.775Z,0
2022-11-15T04:13:21.822Z,0
2022-11-15T04:14:22.833Z,0
2022-11-15T04:15:21.878Z,0
2022-11-15T04:16:21.840Z,0
2022-11-15T04:17:24.854Z,0
2022-11-15T04:18:21.771Z,0
2022-11-15T04:19:21.801Z,0
2022-11-15T04:20:21.798Z,0
2022-11-15T04:21:21.816Z,0
2022-11-15T04:22:24.913Z,0
2022-11-15T04:23:21.775Z,0
2022-11-15T04:24:21.805Z,0
2022-11-15T04:25:34.332Z,0
2022-11-15T04:26:21.813Z,0
2022-11-15T04:27:21.811Z,0
2022-11-15T04:28:21.800Z,0
2022-11-15T04:29:21.821Z,0
2022-11-15T04:30:21.926Z,0
2022-11-15T04:31:21.796Z,0
2022-11-15T04:32:21.825Z,0
2022-11-15T04:33:24.625Z,0
2022-11-15T04:34:22.811Z,0
2022-11-15T04:35:21.855Z,0
2022-11-15T04:36:21.921Z,0
2022-11-15T04:37:22.401Z,0
2022-11-15T04:38:21.892Z,0
2022-11-15T04:39:21.823Z,0
2022-11-15T04:40:21.873Z,0
2022-11-15T04:41:21.836Z,0
2022-11-15T04:42:21.932Z,0
2022-11-15T04:43:21.840Z,0
2022-11-15T04:44:21.856Z,0
2022-11-15T04:45:21.894Z,0
2022-11-15T04:46:21.657Z,0
2022-11-15T04:47:21.828Z,0
2022-11-15T04:48:21.681Z,0
2022-11-15T04:49:24.936Z,0
2022-11-15T04:50:22.417Z,0
2022-11-15T04:51:23.011Z,0
2022-11-15T04:52:22.432Z,0
2022-11-15T04:53:21.847Z,0
2022-11-15T04:54:21.840Z,0
2022-11-15T04:55:21.833Z,0
2022-11-15T04:56:21.853Z,0
2022-11-15T04:57:21.852Z,0
2022-11-15T04:58:21.837Z,0
2022-11-15T04:59:27.809Z,0
2022-11-15T05:00:24.835Z,0
2022-11-15T05:01:22.617Z,0
2022-11-15T05:02:21.902Z,0
2022-11-15T05:03:21.840Z,0
2022-11-15T05:04:21.888Z,0
2022-11-15T05:05:24.748Z,0
2022-11-15T05:06:21.845Z,0
2022-11-15T05:07:22.339Z,0
2022-11-15T05:08:21.867Z,0
2022-11-15T05:09:26.176Z,0
2022-11-15T05:10:21.910Z,0
2022-11-15T05:11:24.894Z,0
2022-11-15T05:12:21.895Z,0
2022-11-15T05:13:21.911Z,0
2022-11-15T05:14:21.873Z,0
2022-11-15T05:15:21.877Z,0
2022-11-15T05:16:25.018Z,0
2022-11-15T05:17:21.886Z,0
2022-11-15T05:18:28.435Z,0
2022-11-15T05:19:21.868Z,0
2022-11-15T05:20:21.908Z,0
2022-11-15T05:21:21.878Z,0
2022-11-15T05:22:22.916Z,0
2022-11-15T05:23:21.918Z,0
2022-11-15T05:24:21.873Z,0
2022-11-15T05:25:21.929Z,0
2022-11-15T05:26:22.015Z,0
2022-11-15T05:27:24.705Z,0
2022-11-15T05:28:21.884Z,0
2022-11-15T05:29:21.956Z,0
2022-11-15T05:30:21.918Z,0
2022-11-15T05:31:21.928Z,0
2022-11-15T05:32:22.004Z,0
2022-11-15T05:33:24.722Z,0
2022-11-15T05:34:21.967Z,0
2022-11-15T05:35:21.930Z,0
2022-11-15T05:36:22.196Z,0
2022-11-15T05:37:21.904Z,0
2022-11-15T05:38:24.756Z,0
2022-11-15T05:39:28.071Z,0
2022-11-15T05:40:21.935Z,0
2022-11-15T05:41:21.952Z,0
2022-11-15T05:42:21.919Z,0
2022-11-15T05:43:21.910Z,0
2022-11-15T05:44:24.656Z,0
2022-11-15T05:45:29.403Z,0
2022-11-15T05:46:21.923Z,0
2022-11-15T05:47:21.937Z,0
2022-11-15T05:48:21.960Z,0
2022-11-15T05:49:24.990Z,0
2022-11-15T05:50:21.928Z,0
2022-11-15T05:51:21.829Z,0
2022-11-15T05:52:21.917Z,0
2022-11-15T05:53:21.945Z,0
2022-11-15T05:54:22.161Z,0
2022-11-15T05:55:25.026Z,0
2022-11-15T05:56:23.304Z,0
2022-11-15T05:57:22.621Z,0
2022-11-15T05:58:21.983Z,0
2022-11-15T05:59:21.948Z,0
2022-11-15T06:00:24.960Z,0
2022-11-15T06:01:22.003Z,0
2022-11-15T06:02:22.337Z,0
2022-11-15T06:03:21.965Z,0
2022-11-15T06:04:22.111Z,0
2022-11-15T06:05:21.977Z,0
2022-11-15T06:06:28.649Z,0
2022-11-15T06:07:22.696Z,0
2022-11-15T06:08:21.983Z,0
2022-11-15T06:09:22.057Z,0
2022-11-15T06:10:21.977Z,0
2022-11-15T06:11:24.940Z,0
2022-11-15T06:12:25.301Z,0
2022-11-15T06:13:21.960Z,0
2022-11-15T06:14:21.956Z,0
2022-11-15T06:15:21.986Z,0
2022-11-15T06:16:22.028Z,0
2022-11-15T06:17:24.830Z,0
2022-11-15T06:18:21.988Z,0
2022-11-15T06:19:21.957Z,0
2022-11-15T06:20:22.525Z,0
2022-11-15T06:21:21.999Z,0
2022-11-15T06:22:25.245Z,0
2022-11-15T06:23:21.961Z,0
2022-11-15T06:24:22.014Z,0
2022-11-15T06:25:21.813Z,0
2022-11-15T06:26:22.151Z,0
2022-11-15T06:27:21.810Z,0
2022-11-15T06:28:24.768Z,0
2022-11-15T06:29:21.976Z,0
2022-11-15T06:30:21.984Z,0
2022-11-15T06:31:22.015Z,0
2022-11-15T06:32:21.977Z,0
2022-11-15T06:33:23.115Z,0
2022-11-15T06:34:22.040Z,0
2022-11-15T06:35:22.011Z,0
2022-11-15T06:36:26.623Z,0
2022-11-15T06:37:22.150Z,0
2022-11-15T06:38:25.038Z,0
2022-11-15T06:39:22.004Z,0
2022-11-15T06:40:22.040Z,0
2022-11-15T06:41:21.910Z,0
2022-11-15T06:42:22.059Z,0
2022-11-15T06:43:21.840Z,0
2022-11-15T06:44:24.645Z,0
2022-11-15T06:45:22.015Z,0
2022-11-15T06:46:22.086Z,0
2022-11-15T06:47:21.884Z,0
2022-11-15T06:48:22.023Z,0
2022-11-15T06:49:24.663Z,0
2022-11-15T06:50:22.038Z,0
2022-11-15T06:51:22.064Z,0
2022-11-15T06:52:22.079Z,0
2022-11-15T06:53:22.050Z,5
2022-11-15T06:54:22.033Z,5
2022-11-15T06:55:22.010Z,5
2022-11-15T06:56:22.090Z,5
2022-11-15T06:57:22.090Z,5
2022-11-15T06:58:22.056Z,5
2022-11-15T06:59:22.067Z,5
2022-11-15T07:00:23.475Z,5
2022-11-15T07:01:25.527Z,5
2022-11-15T07:02:22.092Z,5
2022-11-15T07:03:22.031Z,5
2022-11-15T07:04:22.029Z,5
2022-11-15T07:05:22.056Z,5
2022-11-15T07:06:22.056Z,5
2022-11-15T07:07:22.392Z,5
2022-11-15T07:08:22.175Z,5
2022-11-15T07:09:22.044Z,5
2022-11-15T07:10:22.090Z,5
2022-11-15T07:11:25.156Z,5
2022-11-15T07:12:22.076Z,5
2022-11-15T07:13:22.034Z,5
2022-11-15T07:14:22.102Z,5
2022-11-15T07:15:22.231Z,5
2022-11-15T07:16:25.270Z,5
2022-11-15T07:17:22.048Z,5
2022-11-15T07:18:22.086Z,5
2022-11-15T07:19:22.039Z,10
2022-11-15T07:20:22.059Z,10
2022-11-15T07:21:28.502Z,10
2022-11-15T07:22:22.044Z,15
2022-11-15T07:23:22.069Z,40
2022-11-15T07:24:22.122Z,70
2022-11-15T07:25:22.897Z,115
2022-11-15T07:26:22.675Z,120
2022-11-15T07:27:25.769Z,120
2022-11-15T07:28:22.410Z,130
2022-11-15T07:29:22.058Z,135
2022-11-15T07:30:24.732Z,135
2022-11-15T07:31:22.102Z,140
2022-11-15T07:32:25.088Z,140
2022-11-15T07:33:22.099Z,140
2022-11-15T07:34:22.109Z,140
2022-11-15T07:35:22.127Z,145
2022-11-15T07:36:22.103Z,145
2022-11-15T07:37:22.117Z,145
2022-11-15T07:38:25.040Z,145
2022-11-15T07:39:22.323Z,145
2022-11-15T07:40:22.166Z,150
2022-11-15T07:41:22.132Z,150
2022-11-15T07:42:22.106Z,150
2022-11-15T07:43:24.923Z,150
2022-11-15T07:44:22.073Z,150
2022-11-15T07:45:22.110Z,150
2022-11-15T07:46:22.172Z,155
2022-11-15T07:47:22.115Z,145
2022-11-15T07:48:22.174Z,105
2022-11-15T07:49:24.922Z,70
2022-11-15T07:50:25.100Z,55
2022-11-15T07:51:23.566Z,45
2022-11-15T07:52:22.099Z,40
2022-11-15T07:53:22.191Z,35
2022-11-15T07:54:25.349Z,30
2022-11-15T07:55:22.108Z,30
2022-11-15T07:56:22.196Z,30
2022-11-15T07:57:22.165Z,20
2022-11-15T07:58:22.112Z,20
2022-11-15T07:59:22.156Z,20
2022-11-15T08:00:25.136Z,20
2022-11-15T08:01:22.964Z,20
2022-11-15T08:02:26.413Z,20
2022-11-15T08:03:22.165Z,15
2022-11-15T08:04:22.165Z,15
2022-11-15T08:05:25.183Z,15
2022-11-15T08:06:22.193Z,15
2022-11-15T08:07:22.489Z,15
2022-11-15T08:08:25.277Z,15
2022-11-15T08:09:22.242Z,15
2022-11-15T08:10:22.130Z,15
2022-11-15T08:11:25.313Z,15
2022-11-15T08:12:22.346Z,15
2022-11-15T08:13:22.637Z,15
2022-11-15T08:14:22.167Z,15
2022-11-15T08:15:22.230Z,15
2022-11-15T08:16:23.302Z,15
2022-11-15T08:17:22.151Z,15
2022-11-15T08:18:22.184Z,15
2022-11-15T08:19:22.142Z,15
2022-11-15T08:20:23.390Z,15
2022-11-15T08:21:27.384Z,15
2022-11-15T08:22:25.916Z,15
2022-11-15T08:23:22.157Z,15
2022-11-15T08:24:22.180Z,15
2022-11-15T08:25:22.159Z,15
2022-11-15T08:26:22.176Z,15
2022-11-15T08:27:25.699Z,15
2022-11-15T08:28:22.217Z,15
2022-11-15T08:29:24.885Z,15
2022-11-15T08:30:22.148Z,15
2022-11-15T08:31:22.181Z,15
2022-11-15T08:32:22.183Z,15
2022-11-15T08:33:25.244Z,15
2022-11-15T08:34:22.220Z,15
2022-11-15T08:35:28.917Z,15
2022-11-15T08:36:22.209Z,15
2022-11-15T08:37:22.168Z,15
2022-11-15T08:38:24.982Z,15
2022-11-15T08:39:22.200Z,15
2022-11-15T08:40:22.201Z,15
2022-11-15T08:41:22.193Z,15
2022-11-15T08:42:28.639Z,15
2022-11-15T08:43:23.215Z,15
2022-11-15T08:44:24.964Z,15
2022-11-15T08:45:22.194Z,15
2022-11-15T08:46:22.240Z,15
2022-11-15T08:47:22.182Z,15
2022-11-15T08:48:22.214Z,15
2022-11-15T08:49:25.128Z,15
2022-11-15T08:50:22.196Z,15
2022-11-15T08:51:22.223Z,15
2022-11-15T08:52:22.217Z,15
2022-11-15T08:53:22.259Z,15
2022-11-15T08:54:22.311Z,15
2022-11-15T08:55:28.946Z,15
2022-11-15T08:56:22.100Z,15
2022-11-15T08:57:22.220Z,15
2022-11-15T08:58:23.308Z,15
2022-11-15T08:59:22.345Z,15
2022-11-15T09:00:25.482Z,15
2022-11-15T09:01:27.920Z,15
2022-11-15T09:02:22.207Z,15
2022-11-15T09:03:22.221Z,15
2022-11-15T09:04:22.371Z,15
2022-11-15T09:05:22.382Z,15
2022-11-15T09:06:23.304Z,15
2022-11-15T09:07:22.749Z,15
2022-11-15T09:08:58.275Z,15
2022-11-15T09:09:22.216Z,15
2022-11-15T09:10:22.223Z,15
2022-11-15T09:11:25.341Z,15
2022-11-15T09:12:22.641Z,15
2022-11-15T09:13:22.235Z,15
2022-11-15T09:14:22.338Z,15
2022-11-15T09:15:22.232Z,15
2022-11-15T09:16:23.165Z,15
2022-11-15T09:17:29.526Z,15
2022-11-15T09:18:24.654Z,15
2022-11-15T09:19:22.803Z,15
2022-11-15T09:20:22.500Z,15
2022-11-15T09:21:23.331Z,15
2022-11-15T09:22:22.234Z,15
2022-11-15T09:23:22.571Z,15
2022-11-15T09:24:22.302Z,15
2022-11-15T09:25:22.260Z,15
2022-11-15T09:26:25.050Z,15
2022-11-15T09:27:23.302Z,15
2022-11-15T09:28:22.346Z,15
2022-11-15T09:29:22.350Z,15
2022-11-15T09:30:23.341Z,15
2022-11-15T09:31:27.980Z,15
2022-11-15T09:32:22.321Z,15
2022-11-15T09:33:22.261Z,15
2022-11-15T09:34:22.255Z,15
2022-11-15T09:35:22.264Z,15
2022-11-15T09:36:22.308Z,15
2022-11-15T09:37:22.283Z,15
2022-11-15T09:38:25.387Z,15
2022-11-15T09:39:22.263Z,15
2022-11-15T09:40:22.583Z,15
2022-11-15T09:41:23.344Z,15
2022-11-15T09:42:22.265Z,15
2022-11-15T09:43:25.085Z,15
2022-11-15T09:44:31.702Z,15
2022-11-15T09:45:22.341Z,15
2022-11-15T09:46:22.621Z,15
2022-11-15T09:47:22.355Z,15
2022-11-15T09:48:23.347Z,15
2022-11-15T09:49:25.329Z,15
2022-11-15T09:50:22.310Z,15
2022-11-15T09:51:22.740Z,15
2022-11-15T09:52:22.321Z,15
2022-11-15T09:55:01.917Z,15
2022-11-15T09:56:29.611Z,15
2022-11-15T09:57:29.585Z,15
2022-11-15T09:58:29.885Z,15
2022-11-15T09:59:30.597Z,15
2022-11-15T10:00:59.964Z,15
2022-11-15T10:01:30.096Z,15
2022-11-15T10:02:29.609Z,15
2022-11-15T10:03:29.730Z,15
2022-11-15T10:04:29.835Z,15
2022-11-15T10:05:29.607Z,15
2022-11-15T10:06:32.757Z,15
2022-11-15T10:07:29.937Z,15
2022-11-15T10:08:30.064Z,15
2022-11-15T10:09:33.104Z,15
2022-11-15T10:10:29.641Z,15
2022-11-15T10:11:47.311Z,15
2022-11-15T10:12:29.618Z,15
2022-11-15T10:13:29.617Z,15
2022-11-15T10:14:29.613Z,15
2022-11-15T10:15:29.809Z,15
2022-11-15T10:16:30.079Z,15
2022-11-15T10:17:32.412Z,15
2022-11-15T10:18:29.862Z,15
2022-11-15T10:19:29.646Z,15
2022-11-15T10:20:29.638Z,15
2022-11-15T10:21:29.665Z,15
2022-11-15T10:22:32.536Z,15
2022-11-15T10:23:29.620Z,15
2022-11-15T10:24:29.680Z,15
2022-11-15T10:25:29.693Z,15
2022-11-15T10:26:29.656Z,15
2022-11-15T10:27:32.470Z,15
2022-11-15T10:28:30.009Z,15
2022-11-15T10:29:35.537Z,15
2022-11-15T10:30:29.642Z,15
2022-11-15T10:31:29.711Z,15
2022-11-15T10:32:29.653Z,15
2022-11-15T10:33:32.694Z,15
2022-11-15T10:34:29.640Z,15
2022-11-15T10:35:29.675Z,15
2022-11-15T10:36:29.673Z,15
2022-11-15T10:37:29.637Z,10
2022-11-15T10:38:33.350Z,15
2022-11-15T10:39:29.661Z,10
2022-11-15T10:40:29.936Z,10
2022-11-15T10:41:29.721Z,10
2022-11-15T10:42:29.671Z,10
2022-11-15T10:43:29.701Z,10
2022-11-15T10:44:32.538Z,10
2022-11-15T10:45:29.671Z,10
2022-11-15T10:46:55.074Z,10
2022-11-15T10:47:32.453Z,10
2022-11-15T10:48:29.893Z,10
2022-11-15T10:49:32.730Z,10
2022-11-15T10:50:29.679Z,10
2022-11-15T10:51:29.674Z,10
2022-11-15T10:52:29.700Z,10
2022-11-15T10:53:29.692Z,10
2022-11-15T10:54:30.378Z,10
2022-11-15T10:55:32.743Z,10
2022-11-15T10:56:29.677Z,10
2022-11-15T10:57:29.864Z,10
2022-11-15T10:58:30.037Z,10
2022-11-15T10:59:31.083Z,10
2022-11-15T11:00:32.534Z,10
2022-11-15T11:01:30.163Z,10
2022-11-15T11:02:29.734Z,10
2022-11-15T11:03:29.720Z,10
2022-11-15T11:04:29.724Z,10
2022-11-15T11:05:29.757Z,10
2022-11-15T11:06:32.462Z,10
2022-11-15T11:07:30.451Z,10
2022-11-15T11:08:29.990Z,10
2022-11-15T11:09:29.744Z,10
2022-11-15T11:11:07.910Z,10
2022-11-15T11:11:32.724Z,10
2022-11-15T11:12:29.736Z,10
2022-11-15T11:13:29.754Z,10
2022-11-15T11:14:29.710Z,10
2022-11-15T11:15:29.796Z,10
2022-11-15T11:16:29.723Z,10
2022-11-15T11:17:32.737Z,10
2022-11-15T11:18:30.031Z,10
2022-11-15T11:19:29.790Z,10
2022-11-15T11:20:29.714Z,10
2022-11-15T11:21:44.642Z,10
2022-11-15T11:22:30.876Z,10
2022-11-15T11:23:30.058Z,10
2022-11-15T11:24:29.721Z,10
2022-11-15T11:25:32.492Z,10
2022-11-15T11:26:29.744Z,10
2022-11-15T11:27:30.027Z,10
2022-11-15T11:28:30.150Z,10
2022-11-15T11:29:29.779Z,10
2022-11-15T11:30:29.742Z,10
2022-11-15T11:31:29.770Z,10
2022-11-15T11:32:29.758Z,10
2022-11-15T11:33:29.811Z,10
2022-11-15T11:34:29.802Z,10
2022-11-15T11:35:29.781Z,10
2022-11-15T11:36:29.755Z,10
2022-11-15T11:37:29.804Z,10
2022-11-15T11:38:30.036Z,10
2022-11-15T11:39:29.748Z,10
2022-11-15T11:40:29.751Z,10
2022-11-15T11:41:29.744Z,10
2022-11-15T11:42:29.930Z,10
2022-11-15T11:43:29.771Z,10
2022-11-15T11:44:29.757Z,5
2022-11-15T11:45:29.819Z,10
2022-11-15T11:46:29.759Z,10
2022-11-15T11:47:29.834Z,10
2022-11-15T11:48:30.071Z,10
2022-11-15T11:49:32.762Z,10
2022-11-15T11:50:29.764Z,10
2022-11-15T11:51:29.793Z,10
2022-11-15T11:52:29.809Z,10
2022-11-15T11:53:29.847Z,10
2022-11-15T11:54:29.786Z,10
2022-11-15T11:55:29.788Z,15
2022-11-15T11:56:29.792Z,15
2022-11-15T11:57:29.802Z,15
2022-11-15T11:58:30.114Z,15
2022-11-15T11:59:29.819Z,10
2022-11-15T12:00:32.707Z,10
2022-11-15T12:01:29.801Z,10
2022-11-15T12:02:30.563Z,10
2022-11-15T12:03:29.919Z,10
2022-11-15T12:04:29.818Z,10
2022-11-15T12:05:32.836Z,15
2022-11-15T12:06:29.804Z,15
2022-11-15T12:07:30.265Z,15
2022-11-15T12:08:30.245Z,15
2022-11-15T12:09:29.856Z,15
2022-11-15T12:10:29.801Z,15
2022-11-15T12:11:32.885Z,15
2022-11-15T12:12:29.831Z,15
2022-11-15T12:13:29.830Z,15
2022-11-15T12:14:29.806Z,15
2022-11-15T12:15:29.824Z,15
2022-11-15T12:16:32.657Z,15
2022-11-15T12:17:30.899Z,10
2022-11-15T12:18:29.994Z,10
2022-11-15T12:19:29.874Z,10
2022-11-15T12:20:29.857Z,10
2022-11-15T12:21:36.136Z,10
2022-11-15T12:22:32.865Z,10
2022-11-15T12:23:29.962Z,10
2022-11-15T12:24:29.853Z,15
2022-11-15T12:25:30.120Z,15
2022-11-15T12:26:29.870Z,15
2022-11-15T12:27:35.716Z,10
2022-11-15T12:28:30.223Z,10
2022-11-15T12:29:29.883Z,15
2022-11-15T12:30:29.879Z,15
2022-11-15T12:31:29.882Z,15
2022-11-15T12:32:29.912Z,15
2022-11-15T12:33:32.612Z,15
2022-11-15T12:34:29.848Z,15
2022-11-15T12:35:29.922Z,15
2022-11-15T12:36:29.921Z,15
2022-11-15T12:37:30.919Z,15
2022-11-15T12:38:33.722Z,15
2022-11-15T12:39:29.911Z,15
2022-11-15T12:40:29.900Z,15
2022-11-15T12:41:29.947Z,15
2022-11-15T12:42:29.968Z,15
2022-11-15T12:43:32.676Z,15
2022-11-15T12:44:32.818Z,15
2022-11-15T12:45:29.893Z,15
2022-11-15T12:46:29.866Z,15
2022-11-15T12:47:32.515Z,15
2022-11-15T12:48:30.144Z,15
2022-11-15T12:49:33.012Z,15
2022-11-15T12:50:29.891Z,15
2022-11-15T12:51:29.931Z,15
2022-11-15T12:52:29.917Z,10
2022-11-15T12:53:29.908Z,10
2022-11-15T12:54:32.958Z,10
2022-11-15T12:55:38.659Z,10
2022-11-15T12:56:29.882Z,10
2022-11-15T12:57:29.953Z,10
2022-11-15T12:58:30.526Z,10
2022-11-15T12:59:29.906Z,10
2022-11-15T13:00:35.114Z,10
2022-11-15T13:01:33.100Z,10
2022-11-15T13:02:29.947Z,10
2022-11-15T13:03:29.925Z,10
2022-11-15T13:04:29.940Z,10
2022-11-15T13:05:34.165Z,10
2022-11-15T13:06:29.907Z,10
2022-11-15T13:07:30.382Z,10
2022-11-15T13:08:30.239Z,10
2022-11-15T13:09:29.935Z,10
2022-11-15T13:10:36.638Z,10
2022-11-15T13:11:32.947Z,10
2022-11-15T13:12:29.970Z,10
2022-11-15T13:13:30.048Z,10
2022-11-15T13:14:29.926Z,10
2022-11-15T13:15:29.914Z,10
2022-11-15T13:16:33.027Z,10
2022-11-15T13:17:29.961Z,10
2022-11-15T13:18:30.298Z,5
2022-11-15T13:19:30.034Z,5
2022-11-15T13:20:29.948Z,5
2022-11-15T13:21:29.931Z,5
2022-11-15T13:22:32.983Z,5
2022-11-15T13:23:29.962Z,5
2022-11-15T13:24:29.993Z,5
2022-11-15T13:25:29.982Z,5
2022-11-15T13:26:30.021Z,5
2022-11-15T13:27:33.226Z,5
2022-11-15T13:28:30.123Z,5
2022-11-15T13:29:30.013Z,5
2022-11-15T13:30:30.080Z,10
2022-11-15T13:31:29.966Z,10
2022-11-15T13:32:29.959Z,10
2022-11-15T13:33:38.153Z,10
2022-11-15T13:34:59.962Z,10
2022-11-15T13:35:29.966Z,10
2022-11-15T13:36:29.957Z,10
2022-11-15T13:37:29.989Z,10
2022-11-15T13:38:36.467Z,10
2022-11-15T13:39:29.990Z,10
2022-11-15T13:40:30.132Z,10
2022-11-15T13:41:29.965Z,10
2022-11-15T13:42:30.099Z,10
2022-11-15T13:43:30.057Z,10
2022-11-15T13:44:33.082Z,10
2022-11-15T13:45:30.045Z,10
2022-11-15T13:46:29.999Z,10
2022-11-15T13:47:30.044Z,10
2022-11-15T13:48:30.413Z,10
2022-11-15T13:49:31.062Z,10
2022-11-15T13:50:30.045Z,10
2022-11-15T13:51:30.028Z,10
2022-11-15T13:52:30.027Z,10
2022-11-15T13:53:30.112Z,10
2022-11-15T13:54:30.372Z,10
2022-11-15T13:55:30.043Z,10
2022-11-15T13:56:29.873Z,10
2022-11-15T13:57:29.710Z,10
2022-11-15T13:58:41.552Z,10
2022-11-15T13:59:29.868Z,10
2022-11-15T14:00:30.014Z,10
2022-11-15T14:01:30.446Z,10
2022-11-15T14:02:30.026Z,10
2022-11-15T14:03:29.514Z,10
2022-11-15T14:04:29.511Z,10
2022-11-15T14:05:29.391Z,10
2022-11-15T14:06:30.128Z,10
2022-11-15T14:07:30.408Z,10
2022-11-15T14:08:30.488Z,5
2022-11-15T14:09:30.417Z,5
2022-11-15T14:10:30.059Z,5
2022-11-15T14:11:30.012Z,5
2022-11-15T14:12:30.032Z,5
2022-11-15T14:13:29.924Z,5
2022-11-15T14:14:30.073Z,5
2022-11-15T14:15:30.236Z,5
2022-11-15T14:16:33.113Z,5
2022-11-15T14:17:30.114Z,5
2022-11-15T14:18:30.414Z,5
2022-11-15T14:19:30.105Z,5
2022-11-15T14:20:30.225Z,5
2022-11-15T14:21:30.063Z,5
2022-11-15T14:22:30.095Z,5
2022-11-15T14:23:30.051Z,5
2022-11-15T14:24:30.031Z,5
2022-11-15T14:25:30.125Z,5
2022-11-15T14:26:30.103Z,5
2022-11-15T14:27:32.865Z,5
2022-11-15T14:28:30.377Z,5
2022-11-15T14:29:30.099Z,5
2022-11-15T14:30:30.101Z,5
2022-11-15T14:31:30.048Z,5
2022-11-15T14:32:33.080Z,5
2022-11-15T14:33:30.053Z,5
2022-11-15T14:34:30.168Z,5